Time;durP1;ratioP1;P1;durP2;ratioP2;P2;SDS_P1;SDS_P2;PMS_P1;PMS_P2;Temp;Humidity;BMP_temperature;BMP_pressure;BME280_temperature;BME280_humidity;BME280_pressure;Samples;Min_cycle;Max_cycle;Signal;HPM_P1;HPM_P2
2021/01/20 00:01:56;;;;;;;1.38;1.00;;;14.20;61.90;;;;;;5034942;28;20091;-44
2021/01/20 00:04:22;;;;;;;2.00;1.05;;;14.20;62.60;;;;;;5034944;28;20041;-44
2021/01/20 00:06:49;;;;;;;2.40;1.00;;;14.00;61.80;;;;;;5035215;28;20025;-45
2021/01/20 00:09:15;;;;;;;1.90;1.35;;;14.10;61.80;;;;;;5035718;28;20054;-44
2021/01/20 00:11:40;;;;;;;3.08;1.25;;;14.10;61.90;;;;;;5034690;28;20357;-45
2021/01/20 00:14:06;;;;;;;1.30;1.15;;;14.00;61.80;;;;;;5034818;28;20025;-45
2021/01/20 00:16:31;;;;;;;2.42;1.58;;;14.10;61.80;;;;;;5034758;28;20392;-45
2021/01/20 00:18:57;;;;;;;1.33;1.00;;;14.10;61.80;;;;;;5034750;28;20100;-45
2021/01/20 00:21:23;;;;;;;2.85;1.10;;;14.10;61.90;;;;;;5034600;28;20025;-46
2021/01/20 00:23:50;;;;;;;1.70;1.30;;;14.10;62.50;;;;;;5034859;28;20040;-44
2021/01/20 00:26:16;;;;;;;2.53;1.10;;;14.10;61.80;;;;;;5034809;28;20177;-44
2021/01/20 00:28:41;;;;;;;1.70;1.30;;;14.10;61.90;;;;;;5034448;28;20495;-45
2021/01/20 00:31:07;;;;;;;1.80;0.95;;;13.90;61.70;;;;;;5034715;28;20092;-44
2021/01/20 00:33:33;;;;;;;1.73;1.00;;;14.10;61.80;;;;;;5034706;28;20112;-44
2021/01/20 00:35:58;;;;;;;3.00;1.40;;;14.10;61.90;;;;;;5034020;28;20387;-44
2021/01/20 00:38:24;;;;;;;2.80;1.05;;;14.10;61.90;;;;;;5034305;28;20029;-45
2021/01/20 00:40:49;;;;;;;2.00;1.35;;;14.00;61.80;;;;;;5033571;28;20033;-44
2021/01/20 00:43:15;;;;;;;1.35;0.90;;;14.00;61.80;;;;;;5034348;28;20133;-44
2021/01/20 00:45:40;;;;;;;2.63;1.15;;;13.90;61.70;;;;;;5034466;28;20010;-45
2021/01/20 00:48:12;;;;;;;1.77;1.00;;;14.10;61.90;;;;;;5034093;28;20090;-46
2021/01/20 00:50:38;;;;;;;2.78;1.20;;;14.10;61.80;;;;;;5034104;28;20063;-45
2021/01/20 00:53:04;;;;;;;1.35;1.20;;;14.00;61.80;;;;;;5033813;28;20018;-45
2021/01/20 00:55:30;;;;;;;1.55;1.10;;;14.00;61.80;;;;;;5034062;28;20017;-44
2021/01/20 00:57:55;;;;;;;2.08;1.23;;;14.00;61.80;;;;;;5034227;28;20403;-44
2021/01/20 01:00:21;;;;;;;1.55;1.20;;;14.00;61.80;;;;;;5033821;28;20052;-44
2021/01/20 01:02:49;;;;;;;1.67;1.15;;;14.00;61.80;;;;;;5016029;28;20029;-45
2021/01/20 01:05:15;;;;;;;1.77;0.90;;;14.00;61.80;;;;;;5033751;28;20522;-45
2021/01/20 01:07:41;;;;;;;1.60;1.23;;;14.00;61.80;;;;;;5033704;28;20602;-45
2021/01/20 01:10:07;;;;;;;2.53;1.40;;;14.00;61.70;;;;;;5034313;28;20047;-44
2021/01/20 01:12:33;;;;;;;1.55;1.42;;;14.00;61.80;;;;;;5033279;28;20584;-44
2021/01/20 01:14:59;;;;;;;2.35;1.17;;;14.00;61.70;;;;;;5033486;28;20022;-45
2021/01/20 01:17:24;;;;;;;2.28;1.38;;;14.00;61.80;;;;;;5033814;28;20045;-45
2021/01/20 01:19:50;;;;;;;2.45;1.17;;;14.00;61.80;;;;;;5033537;28;20028;-45
2021/01/20 01:22:16;;;;;;;1.77;1.10;;;14.00;61.80;;;;;;5033672;28;20041;-44
2021/01/20 01:24:41;;;;;;;3.15;1.30;;;14.00;61.80;;;;;;5033376;28;20083;-44
2021/01/20 01:27:07;;;;;;;2.63;1.63;;;14.00;61.70;;;;;;5033282;28;20032;-45
2021/01/20 01:29:33;;;;;;;2.70;1.48;;;14.00;61.70;;;;;;5033397;28;20033;-44
2021/01/20 01:31:58;;;;;;;2.15;1.30;;;13.90;61.70;;;;;;5033590;28;20021;-44
2021/01/20 01:34:24;;;;;;;3.08;1.33;;;13.90;61.70;;;;;;5033276;28;20025;-44
2021/01/20 01:36:49;;;;;;;2.03;1.30;;;13.90;61.60;;;;;;5033228;28;20057;-44
2021/01/20 01:39:15;;;;;;;2.88;1.40;;;13.90;61.70;;;;;;5033463;28;20033;-45
2021/01/20 01:41:41;;;;;;;2.65;1.20;;;13.90;61.70;;;;;;5033137;28;20021;-45
2021/01/20 01:44:08;;;;;;;2.00;1.40;;;13.90;61.70;;;;;;5033114;28;20040;-44
2021/01/20 01:46:34;;;;;;;1.52;1.30;;;13.90;61.70;;;;;;5032630;28;20026;-45
2021/01/20 01:49:00;;;;;;;3.63;1.48;;;13.90;61.70;;;;;;5032901;28;20052;-45
2021/01/20 01:51:26;;;;;;;1.90;1.20;;;13.90;61.70;;;;;;5032934;28;20475;-45
2021/01/20 01:53:53;;;;;;;1.65;1.48;;;13.90;61.70;;;;;;5032818;28;20030;-44
2021/01/20 01:56:19;;;;;;;1.70;1.27;;;13.90;61.70;;;;;;5033047;28;20052;-45
2021/01/20 01:58:48;;;;;;;2.60;1.40;;;13.90;61.70;;;;;;5032573;28;20491;-44
2021/01/20 02:01:14;;;;;;;2.42;1.20;;;13.90;61.70;;;;;;5033051;28;20026;-44
2021/01/20 02:03:40;;;;;;;2.75;1.70;;;13.90;61.70;;;;;;5032543;28;20553;-45
2021/01/20 02:06:06;;;;;;;1.85;1.45;;;13.90;61.70;;;;;;5032725;28;20108;-44
2021/01/20 02:08:32;;;;;;;1.98;1.35;;;13.90;61.70;;;;;;5015395;28;20025;-45
2021/01/20 02:11:09;;;;;;;2.13;1.30;;;13.80;61.60;;;;;;5032501;28;20443;-45
2021/01/20 02:13:50;;;;;;;1.20;1.10;;;13.80;61.70;;;;;;5032655;28;20077;-44
2021/01/20 02:16:21;;;;;;;1.38;1.27;;;13.90;61.70;;;;;;5032399;28;20439;-43
2021/01/20 02:18:51;;;;;;;1.63;1.30;;;13.80;61.70;;;;;;5032547;28;20021;-45
2021/01/20 02:21:25;;;;;;;1.95;1.23;;;13.80;61.70;;;;;;5032363;28;20049;-45
2021/01/20 02:23:51;;;;;;;2.08;1.40;;;13.80;61.60;;;;;;5032575;28;20434;-44
2021/01/20 02:26:37;;;;;;;1.65;1.17;;;13.80;61.60;;;;;;5032497;28;20018;-44
2021/01/20 02:29:21;;;;;;;1.92;1.33;;;13.80;61.60;;;;;;5014456;28;20061;-45
2021/01/20 02:31:48;;;;;;;1.55;1.42;;;13.80;61.60;;;;;;5032170;28;20383;-44
2021/01/20 02:34:18;;;;;;;2.78;1.48;;;13.80;61.70;;;;;;5032076;28;20479;-46
2021/01/20 02:36:45;;;;;;;1.88;1.40;;;13.80;61.60;;;;;;5032196;28;20080;-45
2021/01/20 02:39:11;;;;;;;2.40;1.50;;;13.80;61.60;;;;;;5032406;28;20100;-45
2021/01/20 02:41:37;;;;;;;2.25;1.50;;;13.80;61.60;;;;;;5014562;28;20053;-45
2021/01/20 02:44:04;;;;;;;2.78;1.63;;;13.80;61.70;;;;;;5032395;28;20021;-44
2021/01/20 02:46:31;;;;;;;2.35;1.55;;;13.90;61.70;;;;;;5032337;28;20032;-45
2021/01/20 02:48:59;;;;;;;1.80;1.50;;;13.80;61.60;;;;;;5032201;28;20037;-44
2021/01/20 02:51:34;;;;;;;2.10;1.60;;;13.70;61.60;;;;;;5031892;28;20479;-44
2021/01/20 02:54:01;;;;;;;2.15;1.52;;;14.10;61.80;;;;;;5032179;28;20384;-45
2021/01/20 02:56:28;;;;;;;1.90;1.40;;;13.80;61.70;;;;;;5032116;28;20026;-45
2021/01/20 02:58:55;;;;;;;2.75;1.40;;;13.80;61.70;;;;;;5031137;28;20163;-45
2021/01/20 03:01:24;;;;;;;1.73;1.38;;;13.80;61.70;;;;;;5031828;28;20476;-45
2021/01/20 03:03:52;;;;;;;1.40;1.30;;;13.80;61.60;;;;;;5013855;28;20119;-44
2021/01/20 03:06:17;;;;;;;2.00;1.50;;;13.80;61.70;;;;;;5032116;28;20030;-45
2021/01/20 03:08:44;;;;;;;1.67;1.58;;;13.80;61.70;;;;;;5032475;28;20025;-45
2021/01/20 03:11:10;;;;;;;1.80;1.42;;;13.80;61.70;;;;;;5031969;28;20033;-45
2021/01/20 03:13:39;;;;;;;2.95;2.00;;;13.80;61.70;;;;;;5031952;28;20017;-45
2021/01/20 03:16:05;;;;;;;1.75;1.30;;;13.80;61.70;;;;;;5031975;28;20298;-45
2021/01/20 03:18:31;;;;;;;1.58;1.20;;;13.70;61.70;;;;;;5013992;28;20384;-45
2021/01/20 03:20:56;;;;;;;2.40;1.58;;;13.80;61.80;;;;;;5031685;28;20033;-45
2021/01/20 03:23:22;;;;;;;3.47;1.23;;;13.80;61.70;;;;;;5031596;28;20099;-45
2021/01/20 03:25:48;;;;;;;2.13;1.63;;;13.50;61.50;;;;;;5031626;28;20022;-45
2021/01/20 03:28:13;;;;;;;1.58;1.38;;;13.70;61.70;;;;;;5031772;28;20029;-44
2021/01/20 03:30:39;;;;;;;2.75;1.60;;;13.70;61.60;;;;;;5031852;28;20029;-44
2021/01/20 03:33:05;;;;;;;1.58;1.30;;;13.70;61.70;;;;;;5031997;28;20067;-45
2021/01/20 03:35:34;;;;;;;1.50;1.30;;;13.70;61.70;;;;;;5031843;28;20357;-45
2021/01/20 03:38:00;;;;;;;2.15;1.42;;;13.70;61.70;;;;;;5031852;28;20079;-45
2021/01/20 03:40:26;;;;;;;1.65;1.55;;;13.70;61.70;;;;;;5031611;28;20033;-44
2021/01/20 03:42:52;;;;;;;3.05;1.98;;;13.70;61.70;;;;;;5031516;28;20038;-45
2021/01/20 03:45:17;;;;;;;2.40;1.40;;;13.70;61.80;;;;;;5031589;28;20057;-44
2021/01/20 03:47:43;;;;;;;2.90;1.58;;;13.70;61.70;;;;;;5031725;28;20088;-46
2021/01/20 03:50:09;;;;;;;2.72;2.00;;;13.60;61.60;;;;;;5031919;28;20017;-46
2021/01/20 03:52:34;;;;;;;1.40;1.30;;;13.60;79.80;;;;;;5031645;28;20384;-47
2021/01/20 03:55:00;;;;;;;3.10;1.77;;;13.70;61.70;;;;;;5031701;28;20029;-47
2021/01/20 03:57:25;;;;;;;3.15;1.38;;;13.60;61.70;;;;;;5031652;28;20380;-45
2021/01/20 03:59:51;;;;;;;4.25;1.45;;;13.70;61.70;;;;;;5031589;28;20028;-45
2021/01/20 04:02:16;;;;;;;2.45;1.30;;;13.70;61.70;;;;;;5031619;28;20032;-45
2021/01/20 04:04:48;;;;;;;1.65;1.25;;;13.70;61.70;;;;;;5031123;28;20060;-44
2021/01/20 04:07:14;;;;;;;1.30;1.15;;;13.70;61.70;;;;;;5031324;28;20053;-45
2021/01/20 04:09:39;;;;;;;1.70;1.48;;;13.70;61.70;;;;;;5031906;28;20081;-45
2021/01/20 04:12:05;;;;;;;1.42;1.20;;;13.80;61.80;;;;;;5034582;28;20030;-45
2021/01/20 04:14:31;;;;;;;1.30;1.20;;;13.70;61.70;;;;;;5016844;28;20200;-45
2021/01/20 04:16:56;;;;;;;1.30;1.20;;;13.70;61.70;;;;;;5034962;28;20499;-45
2021/01/20 04:19:22;;;;;;;2.22;1.40;;;13.70;61.70;;;;;;5034845;28;20128;-44
2021/01/20 04:21:49;;;;;;;2.35;1.55;;;13.70;61.70;;;;;;5034534;28;20064;-44
2021/01/20 04:24:15;;;;;;;2.75;1.40;;;13.70;61.70;;;;;;5034869;28;20046;-44
2021/01/20 04:26:42;;;;;;;2.28;1.38;;;13.60;61.70;;;;;;5034570;28;20515;-44
2021/01/20 04:29:07;;;;;;;1.52;1.33;;;13.60;61.70;;;;;;5017208;28;20452;-45
2021/01/20 04:31:33;;;;;;;1.60;1.25;;;13.60;61.70;;;;;;5034607;28;20511;-45
2021/01/20 04:33:59;;;;;;;2.38;1.58;;;13.60;61.70;;;;;;5034310;28;20029;-44
2021/01/20 04:36:25;;;;;;;1.83;1.35;;;13.70;61.80;;;;;;5034231;28;20029;-45
2021/01/20 04:38:51;;;;;;;1.60;1.50;;;13.60;61.70;;;;;;5016776;28;20029;-45
2021/01/20 04:41:16;;;;;;;2.38;1.48;;;13.70;61.80;;;;;;5034406;28;20601;-45
2021/01/20 04:43:43;;;;;;;1.10;1.00;;;13.50;61.70;;;;;;5034381;28;20049;-45
2021/01/20 04:46:11;;;;;;;1.95;1.35;;;13.60;61.70;;;;;;5034087;28;20022;-45
2021/01/20 04:48:37;;;;;;;1.75;1.20;;;13.60;61.70;;;;;;5033962;28;20044;-45
2021/01/20 04:51:04;;;;;;;2.20;1.58;;;13.60;61.70;;;;;;5034269;28;20108;-44
2021/01/20 04:53:33;;;;;;;1.20;1.10;;;13.60;61.90;;;;;;5034037;28;20048;-45
2021/01/20 04:56:05;;;;;;;1.63;1.20;;;13.60;61.80;;;;;;5034134;28;20401;-44
2021/01/20 04:58:31;;;;;;;1.60;1.48;;;13.60;61.80;;;;;;5034158;28;20032;-45
2021/01/20 05:00:58;;;;;;;1.27;1.17;;;13.60;61.80;;;;;;5034074;28;20033;-44
2021/01/20 05:03:24;;;;;;;1.98;1.63;;;13.60;61.80;;;;;;5033979;28;20026;-44
2021/01/20 05:05:52;;;;;;;1.77;1.27;;;13.60;61.80;;;;;;5033494;28;20026;-44
2021/01/20 05:08:17;;;;;;;2.03;1.50;;;13.60;61.80;;;;;;5033487;28;20079;-45
2021/01/20 05:10:43;;;;;;;1.45;1.33;;;13.70;61.80;;;;;;5033590;28;20053;-45
2021/01/20 05:13:29;;;;;;;3.00;1.30;;;13.60;61.80;;;;;;5032590;28;20057;-44
2021/01/20 05:15:56;;;;;;;1.67;1.40;;;13.60;61.80;;;;;;5032790;28;20025;-44
2021/01/20 05:18:22;;;;;;;1.55;1.17;;;13.50;61.80;;;;;;5032418;28;20021;-45
2021/01/20 05:20:48;;;;;;;2.13;1.48;;;13.60;62.50;;;;;;5032510;28;20486;-45
2021/01/20 05:23:14;;;;;;;2.08;1.38;;;13.60;61.80;;;;;;5031417;28;20044;-45
2021/01/20 05:25:44;;;;;;;3.22;1.67;;;13.60;61.90;;;;;;5032356;28;20025;-44
2021/01/20 05:28:24;;;;;;;2.30;1.60;;;13.60;62.00;;;;;;5014498;28;20029;-45
2021/01/20 05:30:58;;;;;;;1.35;1.25;;;13.60;61.90;;;;;;5032268;28;20017;-45
2021/01/20 05:33:27;;;;;;;3.40;1.20;;;13.60;61.90;;;;;;5032078;28;20486;-44
2021/01/20 05:36:09;;;;;;;1.50;1.25;;;13.60;61.90;;;;;;5032332;28;20104;-44
2021/01/20 05:38:36;;;;;;;2.10;1.40;;;13.60;61.90;;;;;;5032250;28;20369;-44
2021/01/20 05:41:25;;;;;;;1.70;1.17;;;13.60;62.60;;;;;;5032407;28;20022;-45
2021/01/20 05:43:54;;;;;;;2.58;1.25;;;13.60;62.00;;;;;;5032416;28;20025;-44
2021/01/20 05:46:34;;;;;;;2.72;1.70;;;13.60;62.00;;;;;;5032400;28;20045;-44
2021/01/20 05:49:00;;;;;;;1.80;1.47;;;13.60;62.10;;;;;;5032452;28;20032;-44
2021/01/20 05:51:26;;;;;;;1.77;1.35;;;13.50;62.00;;;;;;5032366;28;20025;-44
2021/01/20 05:54:01;;;;;;;1.35;1.25;;;13.60;62.10;;;;;;5032108;28;20072;-45
2021/01/20 05:56:28;;;;;;;1.60;1.20;;;13.60;62.20;;;;;;5031947;28;20456;-45
2021/01/20 05:58:54;;;;;;;1.75;1.27;;;13.60;62.10;;;;;;5032110;28;20025;-45
2021/01/20 06:01:21;;;;;;;1.98;1.27;;;13.60;62.20;;;;;;5032139;28;20117;-44
2021/01/20 06:03:47;;;;;;;1.50;1.08;;;13.60;62.20;;;;;;5031967;28;20038;-44
2021/01/20 06:06:15;;;;;;;1.73;1.50;;;13.60;62.30;;;;;;5031886;28;20411;-44
2021/01/20 06:08:42;;;;;;;1.40;1.17;;;13.60;62.50;;;;;;5031909;28;20025;-43
2021/01/20 06:11:14;;;;;;;1.92;1.30;;;13.70;62.80;;;;;;4768496;28;7626499;-46
2021/01/20 06:13:40;;;;;;;1.38;1.27;;;13.90;62.60;;;;;;5032528;28;20379;-44
2021/01/20 06:16:28;;;;;;;2.70;1.70;;;14.00;62.50;;;;;;5032457;28;20033;-44
2021/01/20 06:19:09;;;;;;;1.35;1.20;;;14.10;62.40;;;;;;5032663;28;20026;-44
2021/01/20 06:21:36;;;;;;;1.20;1.10;;;14.10;62.00;;;;;;5032621;28;20407;-44
2021/01/20 06:24:22;;;;;;;1.27;0.98;;;14.40;61.80;;;;;;5032563;28;20036;-44
2021/01/20 06:26:55;;;;;;;1.40;1.05;;;14.60;61.60;;;;;;5032586;28;20040;-45
2021/01/20 06:29:25;;;;;;;1.70;1.20;;;14.70;61.30;;;;;;5032091;28;20480;-44
2021/01/20 06:31:52;;;;;;;1.38;1.13;;;14.80;61.10;;;;;;5032516;28;20025;-44
2021/01/20 06:34:18;;;;;;;1.20;1.05;;;14.90;60.90;;;;;;5032249;28;20022;-44
2021/01/20 06:36:43;;;;;;;1.50;1.02;;;15.20;61.00;;;;;;5032387;28;20017;-44
2021/01/20 06:39:34;;;;;;;1.25;0.95;;;15.00;60.70;;;;;;5032148;28;20484;-45
2021/01/20 06:42:01;;;;;;;1.45;1.35;;;15.00;60.60;;;;;;5031757;28;20025;-44
2021/01/20 06:44:27;;;;;;;1.15;1.00;;;15.10;60.60;;;;;;5032225;28;20431;-44
2021/01/20 06:46:55;;;;;;;1.73;1.08;;;15.20;60.50;;;;;;5031970;28;20029;-45
2021/01/20 06:49:21;;;;;;;1.38;1.20;;;15.20;60.40;;;;;;5031931;28;20034;-47
2021/01/20 06:52:14;;;;;;;0.80;0.80;;;15.30;60.20;;;;;;5031965;28;20017;-49
2021/01/20 06:54:45;;;;;;;1.95;1.00;;;15.40;60.10;;;;;;5032164;28;20021;-45
2021/01/20 06:57:33;;;;;;;1.77;1.20;;;15.40;60.00;;;;;;5014116;28;20557;-47
2021/01/20 07:00:10;;;;;;;1.83;0.90;;;15.40;59.90;;;;;;5032128;28;20076;-46
2021/01/20 07:02:37;;;;;;;1.42;1.00;;;15.50;60.10;;;;;;5031898;28;20037;-45
2021/01/20 07:05:05;;;;;;;1.42;1.00;;;15.50;60.00;;;;;;5031967;28;20033;-46
2021/01/20 07:07:51;;;;;;;1.40;1.15;;;15.50;60.00;;;;;;5031731;28;20026;-48
2021/01/20 07:11:04;;;;;;;1.40;1.05;;;15.50;60.00;;;;;;5032430;28;20049;-46
2021/01/20 07:13:37;;;;;;;1.50;1.02;;;15.40;59.90;;;;;;5008462;28;20476;-46
2021/01/20 07:16:06;;;;;;;1.30;1.20;;;15.40;60.00;;;;;;5031932;28;20119;-46
2021/01/20 07:18:32;;;;;;;0.82;0.77;;;15.40;60.10;;;;;;5031791;28;20025;-47
2021/01/20 07:20:57;;;;;;;1.20;1.10;;;15.40;60.10;;;;;;5014345;28;20025;-45
2021/01/20 07:23:23;;;;;;;1.50;1.10;;;15.30;60.00;;;;;;5031802;28;20037;-47
2021/01/20 07:25:51;;;;;;;1.65;1.00;;;15.30;60.10;;;;;;5031620;28;20025;-44
2021/01/20 07:28:17;;;;;;;3.15;1.10;;;15.30;60.10;;;;;;5031876;28;20087;-45
2021/01/20 07:30:43;;;;;;;1.45;1.10;;;15.30;60.20;;;;;;5031861;28;20028;-47
2021/01/20 07:33:20;;;;;;;2.22;1.10;;;15.30;60.20;;;;;;5031738;28;20033;-45
2021/01/20 07:35:47;;;;;;;1.60;0.95;;;15.30;60.50;;;;;;5031832;28;20033;-43
2021/01/20 07:38:12;;;;;;;1.25;1.15;;;15.30;60.20;;;;;;5031383;28;20025;-43
2021/01/20 07:40:43;;;;;;;1.17;0.70;;;15.30;60.20;;;;;;5031649;28;20024;-44
2021/01/20 07:43:19;;;;;;;1.48;0.98;;;15.60;60.20;;;;;;5031433;28;20123;-44
2021/01/20 07:45:45;;;;;;;1.63;0.90;;;15.50;59.70;;;;;;5033113;28;20022;-46
2021/01/20 07:48:11;;;;;;;1.75;0.98;;;15.50;59.40;;;;;;5035300;28;20029;-44
2021/01/20 07:50:39;;;;;;;1.42;1.30;;;15.80;59.30;;;;;;5035215;28;20028;-44
2021/01/20 07:53:06;;;;;;;4.28;1.20;;;15.90;59.40;;;;;;5035299;28;20025;-45
2021/01/20 07:55:32;;;;;;;7.72;1.27;;;16.00;59.30;;;;;;5035140;28;20412;-44
2021/01/20 07:57:59;;;;;;;2.13;0.80;;;16.00;59.20;;;;;;5034871;28;20057;-44
2021/01/20 08:00:25;;;;;;;1.95;1.00;;;16.00;59.30;;;;;;5035244;28;20112;-43
2021/01/20 08:02:51;;;;;;;2.53;1.00;;;16.00;59.40;;;;;;5017035;28;20590;-45
2021/01/20 08:05:17;;;;;;;1.55;1.20;;;15.90;59.60;;;;;;5035007;28;20025;-45
2021/01/20 08:07:43;;;;;;;3.30;1.35;;;15.90;59.80;;;;;;5035012;28;20041;-45
2021/01/20 08:10:21;;;;;;;9.38;3.17;;;15.80;60.30;;;;;;5035219;28;20377;-45
2021/01/20 08:12:49;;;;;;;11.38;3.28;;;15.80;61.30;;;;;;5034508;28;20108;-45
2021/01/20 08:15:15;;;;;;;12.52;3.92;;;15.80;62.00;;;;;;5034373;28;20494;-44
2021/01/20 08:17:43;;;;;;;14.63;4.63;;;15.80;62.80;;;;;;5034708;28;20414;-44
2021/01/20 08:20:11;;;;;;;11.90;4.57;;;15.70;63.40;;;;;;5033288;28;20026;-45
2021/01/20 08:22:45;;;;;;;16.05;5.65;;;15.70;63.60;;;;;;5033994;28;20388;-45
2021/01/20 08:25:17;;;;;;;13.90;5.38;;;15.70;64.50;;;;;;5033039;28;20029;-46
2021/01/20 08:27:44;;;;;;;17.35;6.30;;;15.70;65.20;;;;;;5032566;28;20547;-45
2021/01/20 08:30:12;;;;;;;16.40;6.15;;;15.60;66.10;;;;;;5032343;28;20516;-46
2021/01/20 08:32:53;;;;;;;16.05;5.60;;;15.70;66.50;;;;;;5032730;28;20030;-43
2021/01/20 08:35:25;;;;;;;12.00;4.97;;;15.60;67.00;;;;;;5032482;28;20039;-45
2021/01/20 08:37:51;;;;;;;14.77;5.80;;;15.60;66.60;;;;;;5032859;28;20037;-45
2021/01/20 08:40:16;;;;;;;16.70;5.10;;;15.60;67.50;;;;;;5033771;28;20022;-44
2021/01/20 08:42:44;;;;;;;11.65;4.30;;;15.60;66.60;;;;;;5034317;28;20682;-45
2021/01/20 08:45:11;;;;;;;16.08;5.72;;;15.60;66.70;;;;;;5034237;28;20057;-42
2021/01/20 08:47:55;;;;;;;11.55;4.32;;;15.50;67.20;;;;;;5034344;28;20040;-42
2021/01/20 08:50:26;;;;;;;10.45;4.32;;;15.50;66.40;;;;;;5033944;28;20025;-44
2021/01/20 08:52:53;;;;;;;6.35;2.97;;;15.50;65.80;;;;;;5033868;28;20025;-45
2021/01/20 08:55:29;;;;;;;7.88;3.55;;;15.40;65.60;;;;;;5033846;28;20041;-46
2021/01/20 08:58:17;;;;;;;7.80;3.42;;;15.50;65.70;;;;;;5033706;28;20155;-44
2021/01/20 09:00:43;;;;;;;9.20;3.28;;;15.50;65.60;;;;;;5033874;28;20395;-45
2021/01/20 09:03:17;;;;;;;8.00;3.50;;;15.40;65.70;;;;;;5033910;28;20130;-45
2021/01/20 09:05:45;;;;;;;8.50;3.58;;;15.40;65.70;;;;;;5033931;28;20021;-47
2021/01/20 09:08:11;;;;;;;12.48;4.32;;;15.30;65.60;;;;;;5033626;28;20036;-45
2021/01/20 09:10:36;;;;;;;13.82;3.00;;;15.30;65.60;;;;;;5034331;28;20049;-45
2021/01/20 09:13:02;;;;;;;9.70;2.90;;;15.30;65.50;;;;;;5033841;28;20032;-47
2021/01/20 09:15:29;;;;;;;7.93;2.50;;;15.30;65.50;;;;;;5033561;28;20029;-45
2021/01/20 09:17:54;;;;;;;5.35;2.38;;;15.00;65.30;;;;;;5033855;28;20036;-45
2021/01/20 09:20:20;;;;;;;6.35;2.75;;;15.20;82.90;;;;;;5033660;28;20468;-46
2021/01/20 09:22:46;;;;;;;9.23;3.22;;;15.20;65.30;;;;;;5033300;28;20041;-44
2021/01/20 09:25:12;;;;;;;7.95;3.15;;;15.20;65.10;;;;;;5033578;28;20492;-45
2021/01/20 09:27:38;;;;;;;6.20;3.10;;;15.10;65.00;;;;;;5033559;28;20026;-46
2021/01/20 09:30:05;;;;;;;5.35;2.25;;;15.10;65.00;;;;;;5033274;28;20030;-45
2021/01/20 09:32:35;;;;;;;5.55;2.35;;;15.10;65.00;;;;;;5032981;28;20108;-42
2021/01/20 09:35:07;;;;;;;7.25;2.25;;;15.00;65.00;;;;;;5033505;28;20021;-46
2021/01/20 09:37:33;;;;;;;6.38;2.65;;;15.10;65.00;;;;;;5033063;28;20029;-44
2021/01/20 09:39:59;;;;;;;4.88;2.42;;;15.10;64.80;;;;;;5033074;28;20087;-44
2021/01/20 09:42:25;;;;;;;7.03;2.60;;;15.10;64.80;;;;;;5032945;28;20029;-44
2021/01/20 09:44:50;;;;;;;4.00;1.95;;;15.00;64.60;;;;;;5033251;28;20030;-42
2021/01/20 09:47:16;;;;;;;2.92;1.92;;;15.10;64.30;;;;;;5033441;28;20075;-45
2021/01/20 09:49:45;;;;;;;5.43;2.25;;;15.30;63.70;;;;;;5033063;28;20029;-44
2021/01/20 09:52:15;;;;;;;5.03;1.75;;;15.30;63.30;;;;;;5032934;28;20025;-45
2021/01/20 09:54:41;;;;;;;5.18;1.98;;;15.40;63.10;;;;;;5032940;28;20360;-45
2021/01/20 09:57:07;;;;;;;4.28;1.88;;;15.60;62.80;;;;;;5032741;28;20049;-45
2021/01/20 09:59:32;;;;;;;2.88;1.55;;;15.80;62.30;;;;;;5032942;28;20107;-45
2021/01/20 10:01:58;;;;;;;3.65;1.80;;;15.90;61.80;;;;;;5032693;28;20068;-45
2021/01/20 10:04:23;;;;;;;1.67;1.42;;;16.20;61.70;;;;;;5032670;28;20101;-44
2021/01/20 10:06:52;;;;;;;5.00;1.60;;;16.00;61.40;;;;;;5032564;28;20032;-45
2021/01/20 10:09:18;;;;;;;3.10;1.55;;;16.10;61.30;;;;;;5032375;28;20101;-46
2021/01/20 10:11:44;;;;;;;2.63;1.58;;;16.10;61.20;;;;;;5032834;28;20101;-45
2021/01/20 10:14:09;;;;;;;4.40;1.58;;;16.10;61.20;;;;;;5014777;28;20025;-45
2021/01/20 10:16:35;;;;;;;2.50;1.35;;;16.10;61.30;;;;;;5032370;28;20017;-47
2021/01/20 10:19:00;;;;;;;2.47;1.38;;;16.10;61.40;;;;;;5014397;28;20131;-45
2021/01/20 10:21:26;;;;;;;3.65;1.48;;;16.00;61.50;;;;;;5031530;28;20025;-44
2021/01/20 10:23:51;;;;;;;1.63;1.20;;;16.00;61.60;;;;;;5032553;28;20067;-46
2021/01/20 10:26:23;;;;;;;3.03;1.50;;;15.90;61.70;;;;;;5031199;28;20107;-44
2021/01/20 10:28:49;;;;;;;2.55;1.50;;;15.90;61.70;;;;;;5031763;28;20483;-45
2021/01/20 10:31:14;;;;;;;1.55;1.33;;;15.90;61.80;;;;;;5032394;28;20029;-45
2021/01/20 10:33:41;;;;;;;2.72;1.20;;;15.90;61.80;;;;;;5032203;28;20017;-45
2021/01/20 10:36:07;;;;;;;1.45;1.13;;;15.80;61.90;;;;;;5032414;28;20033;-43
2021/01/20 10:38:33;;;;;;;1.65;1.13;;;15.80;61.90;;;;;;5032477;28;20018;-44
2021/01/20 10:40:58;;;;;;;3.90;1.52;;;15.80;62.00;;;;;;5032066;28;20499;-45
2021/01/20 10:43:24;;;;;;;1.60;1.27;;;16.10;62.20;;;;;;5032117;28;20033;-44
2021/01/20 10:45:49;;;;;;;2.83;1.50;;;15.70;61.90;;;;;;5032283;28;20026;-46
2021/01/20 10:48:15;;;;;;;2.92;1.33;;;15.80;62.10;;;;;;5031354;28;20121;-45
2021/01/20 10:50:40;;;;;;;3.35;1.27;;;15.80;62.10;;;;;;5032028;28;20022;-44
2021/01/20 10:53:06;;;;;;;4.00;1.35;;;15.80;62.00;;;;;;5031822;28;20037;-45
2021/01/20 10:55:31;;;;;;;1.42;1.08;;;15.70;62.10;;;;;;5031998;28;20140;-45
2021/01/20 10:57:57;;;;;;;1.20;0.95;;;15.80;62.10;;;;;;5014448;28;20048;-45
2021/01/20 11:00:23;;;;;;;2.42;1.17;;;15.80;62.00;;;;;;5031997;28;20045;-43
2021/01/20 11:02:49;;;;;;;2.85;1.38;;;15.80;62.00;;;;;;5031526;28;20041;-45
2021/01/20 11:05:14;;;;;;;2.42;1.17;;;15.70;61.80;;;;;;5031849;28;20092;-45
2021/01/20 11:07:40;;;;;;;3.70;1.10;;;15.80;61.80;;;;;;5031937;28;20053;-45
2021/01/20 11:10:06;;;;;;;1.33;0.93;;;15.70;61.80;;;;;;5032423;28;20091;-46
2021/01/20 11:12:32;;;;;;;3.42;1.25;;;15.70;61.70;;;;;;5031500;28;20117;-45
2021/01/20 11:14:57;;;;;;;1.50;0.90;;;15.70;61.70;;;;;;5031598;28;20101;-45
2021/01/20 11:17:23;;;;;;;1.45;1.20;;;15.70;61.60;;;;;;5031924;28;20476;-46
2021/01/20 11:19:49;;;;;;;1.98;1.10;;;15.70;61.60;;;;;;5031631;28;20503;-46
2021/01/20 11:22:14;;;;;;;2.90;1.20;;;15.70;61.50;;;;;;5035860;28;20072;-45
2021/01/20 11:24:40;;;;;;;2.97;1.20;;;15.70;61.50;;;;;;5035597;28;20064;-45
2021/01/20 11:27:05;;;;;;;2.38;1.02;;;15.70;61.40;;;;;;5035860;28;20036;-46
2021/01/20 11:29:31;;;;;;;0.95;0.82;;;15.70;61.50;;;;;;5035295;28;20025;-45
2021/01/20 11:31:56;;;;;;;1.75;1.20;;;15.70;61.40;;;;;;5035295;28;20021;-45
2021/01/20 11:34:22;;;;;;;1.65;0.90;;;15.70;61.30;;;;;;5035307;28;20029;-45
2021/01/20 11:36:48;;;;;;;1.45;1.00;;;15.70;61.40;;;;;;5035659;28;20022;-45
2021/01/20 11:39:13;;;;;;;2.00;1.10;;;15.60;61.40;;;;;;5035220;28;20031;-45
2021/01/20 11:41:39;;;;;;;1.33;0.85;;;15.60;61.40;;;;;;5035377;28;20112;-44
2021/01/20 11:44:05;;;;;;;1.40;0.82;;;15.60;61.50;;;;;;5035333;28;20116;-44
2021/01/20 11:46:30;;;;;;;1.52;0.85;;;15.60;61.50;;;;;;5035043;28;20052;-46
2021/01/20 11:48:58;;;;;;;2.20;0.82;;;15.60;61.50;;;;;;5035271;28;20033;-49
2021/01/20 11:51:23;;;;;;;1.33;1.00;;;15.50;61.50;;;;;;5035079;28;20037;-49
2021/01/20 11:53:49;;;;;;;0.95;0.80;;;15.50;61.60;;;;;;5035407;28;20075;-45
2021/01/20 11:56:14;;;;;;;5.22;0.73;;;15.50;61.40;;;;;;5035023;28;20078;-45
2021/01/20 11:58:40;;;;;;;2.13;1.00;;;15.50;61.20;;;;;;5034973;28;20014;-46
2021/01/20 12:01:06;;;;;;;2.83;0.93;;;15.50;61.40;;;;;;5035049;28;20033;-46
2021/01/20 12:03:34;;;;;;;0.80;0.70;;;15.60;61.50;;;;;;5034992;28;20029;-46
2021/01/20 12:05:59;;;;;;;1.30;0.77;;;15.60;61.10;;;;;;5034738;28;20035;-44
2021/01/20 12:08:25;;;;;;;1.73;1.00;;;15.60;61.10;;;;;;5034843;28;20427;-45
2021/01/20 12:10:51;;;;;;;2.17;1.05;;;15.70;61.10;;;;;;5035290;28;20056;-46
2021/01/20 12:13:19;;;;;;;0.82;0.70;;;15.70;61.10;;;;;;5016805;28;20383;-47
2021/01/20 12:15:44;;;;;;;1.05;0.82;;;15.70;61.10;;;;;;5034577;28;20464;-45
2021/01/20 12:18:10;;;;;;;1.52;0.98;;;15.80;61.10;;;;;;5034572;28;20083;-45
2021/01/20 12:20:36;;;;;;;2.05;0.88;;;15.80;61.00;;;;;;5034719;28;20029;-44
2021/01/20 12:23:01;;;;;;;1.95;0.95;;;15.80;60.90;;;;;;5034609;28;20055;-45
2021/01/20 12:25:27;;;;;;;1.33;0.88;;;15.60;60.90;;;;;;5033527;28;20463;-45
2021/01/20 12:27:53;;;;;;;2.67;0.90;;;15.90;61.10;;;;;;5034392;28;20602;-44
2021/01/20 12:30:19;;;;;;;1.98;1.05;;;15.90;60.90;;;;;;5034330;28;20026;-44
2021/01/20 12:32:45;;;;;;;1.42;0.88;;;15.90;60.90;;;;;;5034044;28;20017;-45
2021/01/20 12:35:10;;;;;;;1.45;0.85;;;16.00;61.00;;;;;;5034313;28;20030;-43
2021/01/20 12:37:36;;;;;;;1.25;0.85;;;16.00;60.70;;;;;;5034663;28;20025;-42
2021/01/20 12:40:03;;;;;;;1.92;1.33;;;16.10;60.50;;;;;;5016812;28;20112;-43
2021/01/20 12:42:28;;;;;;;0.95;0.80;;;16.10;60.50;;;;;;5034121;28;20029;-44
2021/01/20 12:44:54;;;;;;;1.95;0.90;;;16.10;60.50;;;;;;5034580;28;20034;-46
2021/01/20 12:47:19;;;;;;;0.93;0.68;;;16.10;60.50;;;;;;5034234;28;20095;-45
2021/01/20 12:49:45;;;;;;;1.00;0.70;;;16.10;60.30;;;;;;5034401;28;20045;-45